Haneyville, Pennsylvania
Current Conditions -  °F | °C
As of 3:33 PM on Monday 26 Jan 2015 (Local Time) from KIPT Reporting Station
Light Snow Light Snow  
Wind Chill: 25°   Ceiling: 2700
Heat Index: 25°   Visibility: 1.7mi
Dew Point: 20°   Wind: 0mph
Humidity: 81%   Direction: NA
Pressure: 29.82"   Gusts: NA
Location:  41.2558°N, 77.4987°W
Report Text: KIPT 262033Z 00000KT 1 3/4SM -SN BKN027 OVC035 M04/M07 A2982 RMK AO2 P0001 T10391067
Loading
Personal Weather Stations






























Interactive Weather Map New forecast layout! Learn more

10-Day Weather Forecast

Advertisements
Track Severe Weather on mobile